Time;durP1;ratioP1;P1;durP2;ratioP2;P2;SDS_P1;SDS_P2;PMS_P1;PMS_P2;Temp;Humidity;BMP_temperature;BMP_pressure;BME280_temperature;BME280_humidity;BME280_pressure;Samples;Min_cycle;Max_cycle;Signal;HPM_P1;HPM_P2
2023/09/19 00:00:49;;;;;;;1.67;0.83;;;21.30;75.40;20.60;96144.00;;;;5093232;28;20234;-84
2023/09/19 00:03:17;;;;;;;2.30;1.00;;;21.30;76.10;20.60;96150.00;;;;5092678;28;20714;-84
2023/09/19 00:05:46;;;;;;;1.90;0.80;;;21.30;75.40;20.60;96143.00;;;;5091453;28;20226;-83
2023/09/19 00:08:14;;;;;;;0.50;0.50;;;21.30;75.60;20.60;96139.00;;;;5090913;28;20234;-83
2023/09/19 00:10:42;;;;;;;0.60;0.60;;;21.30;75.60;20.60;96148.00;;;;5075356;28;20207;-83
2023/09/19 00:13:13;;;;;;;1.00;0.90;;;21.30;75.80;20.60;96158.00;;;;5093111;28;20203;-83
2023/09/19 00:15:42;;;;;;;1.40;0.70;;;21.30;75.80;20.60;96153.00;;;;5093097;28;20223;-84
2023/09/19 00:18:10;;;;;;;0.77;0.70;;;21.30;75.90;20.60;96154.00;;;;5093414;28;20207;-83
2023/09/19 00:20:38;;;;;;;0.60;0.60;;;21.30;75.90;20.60;96150.00;;;;5095343;28;20227;-83
2023/09/19 00:23:08;;;;;;;0.70;0.70;;;21.30;75.90;20.60;96142.00;;;;5093162;28;20604;-84
2023/09/19 00:25:36;;;;;;;1.80;0.70;;;21.30;75.90;20.60;96138.00;;;;5092966;28;20227;-84
2023/09/19 00:28:06;;;;;;;1.60;0.70;;;21.30;76.00;20.60;96141.00;;;;5092450;28;20640;-84
2023/09/19 00:30:33;;;;;;;0.97;0.97;;;21.30;75.90;20.60;96135.00;;;;5075281;28;20256;-84
2023/09/19 00:33:05;;;;;;;0.93;0.70;;;21.30;75.70;20.60;96135.00;;;;5092624;28;20207;-84
2023/09/19 00:35:33;;;;;;;0.80;0.70;;;21.30;75.70;20.50;96139.00;;;;5091797;28;20219;-83
2023/09/19 00:38:00;;;;;;;0.80;0.80;;;21.30;75.70;20.50;96132.00;;;;5075397;28;20290;-83
2023/09/19 00:40:29;;;;;;;1.17;0.80;;;21.20;75.60;20.50;96134.00;;;;5094817;28;20229;-84
2023/09/19 00:43:00;;;;;;;0.80;0.80;;;21.20;75.50;20.50;96143.00;;;;5097862;28;20471;-84
2023/09/19 00:45:29;;;;;;;0.63;0.57;;;21.20;75.50;20.50;96136.00;;;;5100393;28;20215;-83
2023/09/19 00:47:57;;;;;;;0.90;0.67;;;21.20;75.40;20.40;96134.00;;;;5099727;28;20207;-84
2023/09/19 00:50:28;;;;;;;1.07;0.80;;;21.20;75.40;20.40;96137.00;;;;5098798;28;20204;-84
2023/09/19 00:52:57;;;;;;;1.13;0.93;;;21.20;75.30;20.40;96140.00;;;;5091524;28;20660;-83
2023/09/19 00:55:26;;;;;;;0.50;0.50;;;21.20;75.30;20.40;96157.00;;;;5092548;28;20314;-84
2023/09/19 00:57:58;;;;;;;1.03;0.63;;;21.20;75.40;20.40;96156.00;;;;5092602;28;20354;-83
2023/09/19 01:00:26;;;;;;;0.50;0.50;;;21.20;75.50;20.40;96161.00;;;;5091094;28;20250;-84
2023/09/19 01:02:55;;;;;;;1.07;0.80;;;21.10;75.50;20.40;96157.00;;;;5087588;28;20206;-83
2023/09/19 01:05:23;;;;;;;0.57;0.57;;;21.10;75.50;20.40;96163.00;;;;5083869;28;20237;-83
2023/09/19 01:07:53;;;;;;;0.70;0.70;;;21.10;75.70;20.40;96158.00;;;;5090200;28;20209;-83
2023/09/19 01:10:21;;;;;;;0.57;0.53;;;21.10;75.80;20.30;96159.00;;;;5082424;28;20206;-84
2023/09/19 01:12:59;;;;;;;1.40;0.70;;;21.10;76.00;20.40;96163.00;;;;5090232;28;20620;-83
2023/09/19 01:15:42;;;;;;;0.60;0.60;;;21.10;76.90;20.40;96168.00;;;;5083285;28;20737;-84
2023/09/19 01:18:26;;;;;;;0.50;0.50;;;21.10;76.20;20.40;96176.00;;;;5090536;28;20199;-83
2023/09/19 01:21:09;;;;;;;0.73;0.60;;;21.10;77.00;20.40;96174.00;;;;5094871;28;20226;-83
2023/09/19 01:24:06;;;;;;;0.93;0.70;;;21.10;76.30;20.40;96175.00;;;;5096438;28;20199;-84
2023/09/19 01:27:18;;;;;;;2.50;0.60;;;21.10;76.40;20.40;96173.00;;;;5094863;28;20211;-83
2023/09/19 01:29:50;;;;;;;7.47;1.47;;;21.10;76.30;20.40;96176.00;;;;5096151;28;20203;-84
2023/09/19 01:32:22;;;;;;;1.67;0.60;;;21.10;76.30;20.40;96186.00;;;;5096272;27;20252;-83
2023/09/19 01:34:52;;;;;;;1.00;0.70;;;21.10;76.20;20.40;96183.00;;;;5096034;28;20721;-84
2023/09/19 01:37:25;;;;;;;1.13;0.50;;;21.10;76.20;20.40;96181.00;;;;5095678;28;20699;-84
2023/09/19 01:40:08;;;;;;;0.50;0.50;;;21.10;75.90;20.40;96193.00;;;;5095607;28;20568;-84
2023/09/19 01:42:44;;;;;;;0.60;0.60;;;21.10;75.90;20.40;96196.00;;;;5094920;28;20199;-84
2023/09/19 01:45:18;;;;;;;0.63;0.50;;;21.10;76.00;20.40;96188.00;;;;5094368;28;20199;-84
2023/09/19 01:47:56;;;;;;;0.70;0.70;;;21.20;76.00;20.40;96195.00;;;;5095971;28;20290;-84
2023/09/19 01:50:36;;;;;;;0.67;0.67;;;21.10;75.70;20.40;96195.00;;;;5096342;28;20210;-83
2023/09/19 01:53:11;;;;;;;0.50;0.50;;;21.10;75.60;20.40;96193.00;;;;5095858;28;20222;-83
2023/09/19 01:55:46;;;;;;;0.67;0.57;;;21.10;75.60;20.40;96194.00;;;;5094403;28;20240;-83
2023/09/19 01:58:24;;;;;;;0.90;0.67;;;21.20;75.80;20.40;96184.00;;;;5094440;28;20199;-84
2023/09/19 02:00:53;;;;;;;1.00;0.63;;;21.10;75.40;20.50;96183.00;;;;5094574;28;20259;-84
2023/09/19 02:03:24;;;;;;;1.70;0.50;;;21.20;75.60;20.50;96195.00;;;;5086197;28;20206;-84
2023/09/19 02:05:53;;;;;;;0.60;0.60;;;21.20;75.40;20.50;96195.00;;;;5093887;28;20222;-84
2023/09/19 02:08:23;;;;;;;0.80;0.80;;;21.20;75.40;20.50;96192.00;;;;5087280;28;20647;-84
2023/09/19 02:10:52;;;;;;;1.53;0.67;;;21.20;75.40;20.50;96195.00;;;;5095400;28;20207;-84
2023/09/19 02:13:21;;;;;;;0.80;0.70;;;21.20;75.30;20.50;96193.00;;;;5094883;28;20230;-84
2023/09/19 02:15:49;;;;;;;1.37;0.70;;;21.20;75.30;20.60;96198.00;;;;5095302;28;20226;-84
2023/09/19 02:18:16;;;;;;;0.67;0.67;;;21.20;75.30;20.60;96202.00;;;;5093759;28;20203;-83
2023/09/19 02:20:45;;;;;;;0.80;0.70;;;21.20;75.30;20.60;96189.00;;;;5094721;28;20794;-83
2023/09/19 02:23:14;;;;;;;0.67;0.67;;;21.20;75.30;20.60;96181.00;;;;5093561;28;20207;-84
2023/09/19 02:25:41;;;;;;;0.87;0.60;;;21.20;75.30;20.70;96189.00;;;;5094594;28;20306;-84
2023/09/19 02:28:09;;;;;;;1.83;1.27;;;21.20;75.30;20.70;96188.00;;;;5075284;28;20571;-84
2023/09/19 02:30:37;;;;;;;1.00;0.60;;;21.30;75.40;20.70;96187.00;;;;5093964;28;20289;-83
2023/09/19 02:33:05;;;;;;;0.83;0.80;;;21.30;75.30;20.70;96189.00;;;;5095114;28;20660;-83
2023/09/19 02:35:36;;;;;;;0.63;0.63;;;21.30;75.20;20.80;96185.00;;;;5094981;28;20308;-84
2023/09/19 02:38:06;;;;;;;0.80;0.60;;;21.30;75.20;20.80;96201.00;;;;5095189;28;20199;-83
2023/09/19 02:40:35;;;;;;;0.80;0.50;;;21.30;75.20;20.80;96203.00;;;;5095340;28;20284;-83
2023/09/19 02:43:03;;;;;;;0.90;0.73;;;21.40;75.20;20.80;96207.00;;;;5094565;28;20220;-83
2023/09/19 02:45:32;;;;;;;1.57;0.60;;;21.40;75.20;20.80;96195.00;;;;5094485;28;20227;-84
2023/09/19 02:47:59;;;;;;;0.83;0.70;;;21.40;75.40;20.90;96198.00;;;;5093372;28;20270;-84
2023/09/19 02:50:26;;;;;;;0.70;0.70;;;21.40;75.20;20.90;96206.00;;;;5095092;28;20234;-83
2023/09/19 02:52:54;;;;;;;1.50;0.83;;;21.50;75.20;20.90;96202.00;;;;5076632;28;20206;-84
2023/09/19 02:55:23;;;;;;;1.23;0.80;;;21.50;75.00;20.90;96204.00;;;;5086538;28;20909;-84
2023/09/19 02:57:54;;;;;;;0.50;0.50;;;21.50;75.00;20.90;96213.00;;;;5075646;28;20208;-83
2023/09/19 03:00:23;;;;;;;1.07;0.70;;;21.50;74.90;21.00;96219.00;;;;5089072;28;20248;-83
2023/09/19 03:02:51;;;;;;;0.60;0.60;;;21.50;74.80;21.00;96217.00;;;;5096707;28;20217;-83
2023/09/19 03:05:19;;;;;;;1.93;0.67;;;21.50;74.80;21.00;96219.00;;;;5094828;28;20219;-84
2023/09/19 03:07:50;;;;;;;0.70;0.50;;;21.60;74.90;21.00;96221.00;;;;5092858;28;20204;-83
2023/09/19 03:10:18;;;;;;;0.60;0.60;;;21.60;74.70;21.00;96231.00;;;;5098780;28;20237;-83
2023/09/19 03:12:47;;;;;;;0.50;0.50;;;21.60;74.70;21.00;96221.00;;;;5097094;28;20233;-83
2023/09/19 03:15:16;;;;;;;1.47;0.80;;;21.60;74.60;21.00;96222.00;;;;5101977;28;20260;-83
2023/09/19 03:17:44;;;;;;;1.23;0.60;;;21.60;74.60;21.00;96220.00;;;;5101138;28;20664;-84
2023/09/19 03:20:17;;;;;;;0.63;0.60;;;21.60;74.60;21.10;96223.00;;;;5095341;28;20306;-83
2023/09/19 03:22:44;;;;;;;0.80;0.80;;;21.60;74.50;21.10;96230.00;;;;5093697;28;20257;-84
2023/09/19 03:25:12;;;;;;;0.90;0.67;;;21.60;74.40;21.10;96222.00;;;;5075832;28;20253;-83
2023/09/19 03:27:40;;;;;;;1.23;0.50;;;21.60;74.40;21.10;96228.00;;;;5094968;28;20199;-83
2023/09/19 03:30:13;;;;;;;1.07;0.60;;;21.60;74.30;21.10;96233.00;;;;5093636;28;20571;-83
2023/09/19 03:32:47;;;;;;;0.70;0.60;;;21.70;74.20;21.10;96228.00;;;;5094627;28;20207;-84
2023/09/19 03:35:16;;;;;;;1.57;0.77;;;21.70;74.10;21.10;96231.00;;;;5094479;28;20756;-83
2023/09/19 03:37:44;;;;;;;0.93;0.70;;;21.70;74.50;21.10;96229.00;;;;5093019;28;20206;-84
2023/09/19 03:40:14;;;;;;;0.87;0.60;;;21.60;74.00;21.10;96227.00;;;;5094643;28;20264;-84
2023/09/19 03:42:41;;;;;;;1.57;0.70;;;21.60;74.10;21.10;96223.00;;;;5092934;28;20264;-84
2023/09/19 03:45:12;;;;;;;0.93;0.80;;;21.70;74.30;21.10;96228.00;;;;5086271;28;20204;-83
2023/09/19 03:47:40;;;;;;;0.70;0.67;;;21.70;74.10;21.10;96230.00;;;;5092869;28;20231;-83
2023/09/19 03:50:10;;;;;;;0.87;0.60;;;21.70;74.90;21.10;96235.00;;;;5094404;28;20202;-84
2023/09/19 03:52:38;;;;;;;0.70;0.70;;;21.70;74.00;21.10;96238.00;;;;5092550;28;20225;-84
2023/09/19 03:55:09;;;;;;;1.00;0.70;;;21.70;74.20;21.10;96248.00;;;;5093775;28;20238;-83
2023/09/19 03:57:36;;;;;;;0.97;0.50;;;21.70;74.00;21.10;96252.00;;;;5094184;28;20202;-83
2023/09/19 04:00:11;;;;;;;0.70;0.60;;;21.70;73.90;21.10;96248.00;;;;5094348;28;20203;-83
2023/09/19 04:02:40;;;;;;;0.50;0.50;;;21.70;73.80;21.10;96256.00;;;;5091819;28;20222;-84
2023/09/19 04:05:07;;;;;;;0.60;0.60;;;21.70;73.80;21.10;96256.00;;;;5093173;28;20195;-83
2023/09/19 04:07:35;;;;;;;0.60;0.60;;;21.60;73.70;21.10;96254.00;;;;5093471;28;20207;-83
2023/09/19 04:10:03;;;;;;;0.57;0.57;;;21.70;73.80;21.10;96256.00;;;;5093519;28;20210;-83
2023/09/19 04:12:30;;;;;;;1.30;0.67;;;21.70;73.80;21.10;96263.00;;;;5093992;28;20676;-83
2023/09/19 04:14:57;;;;;;;0.73;0.70;;;21.70;73.80;21.10;96260.00;;;;5093662;28;20210;-83
2023/09/19 04:17:24;;;;;;;0.67;0.50;;;21.70;73.80;21.10;96263.00;;;;5093438;28;20203;-83
2023/09/19 04:19:53;;;;;;;0.50;0.50;;;21.60;73.60;21.10;96264.00;;;;5093075;28;20294;-83
2023/09/19 04:22:20;;;;;;;0.70;0.70;;;21.70;73.70;21.10;96270.00;;;;5092114;28;20290;-83
2023/09/19 04:24:47;;;;;;;0.70;0.70;;;21.70;73.80;21.10;96268.00;;;;5094254;28;20725;-83
2023/09/19 04:27:15;;;;;;;1.37;0.70;;;21.70;73.80;21.10;96275.00;;;;5092803;28;20315;-83
2023/09/19 04:29:42;;;;;;;1.37;0.60;;;21.70;73.80;21.10;96273.00;;;;5075186;28;20210;-84
2023/09/19 04:32:10;;;;;;;0.60;0.53;;;21.70;73.80;21.10;96272.00;;;;5092530;28;20294;-84
2023/09/19 04:34:38;;;;;;;1.47;0.63;;;21.70;73.80;21.10;96274.00;;;;5092860;28;20209;-83
2023/09/19 04:37:06;;;;;;;1.37;0.70;;;21.70;73.60;21.10;96267.00;;;;5091166;28;20636;-82
2023/09/19 04:39:34;;;;;;;1.73;0.97;;;21.70;73.60;21.10;96280.00;;;;5092960;28;20207;-82
2023/09/19 04:42:01;;;;;;;1.87;0.63;;;21.70;73.60;21.10;96282.00;;;;5091119;28;20588;-82
2023/09/19 04:44:28;;;;;;;0.77;0.77;;;21.70;73.40;21.10;96289.00;;;;5082250;28;20564;-83
2023/09/19 04:46:56;;;;;;;0.83;0.70;;;21.70;73.50;21.20;96289.00;;;;5088642;28;20718;-82
2023/09/19 04:49:23;;;;;;;0.90;0.50;;;21.80;73.40;21.20;96285.00;;;;5091764;28;20712;-82
2023/09/19 04:51:50;;;;;;;2.33;0.70;;;21.70;73.00;21.20;96290.00;;;;5091992;28;20206;-82
2023/09/19 04:54:19;;;;;;;0.80;0.50;;;21.80;73.00;21.20;96292.00;;;;5092616;28;20202;-82
2023/09/19 04:56:46;;;;;;;0.93;0.93;;;21.80;72.90;21.20;96296.00;;;;5094669;28;20214;-82
2023/09/19 04:59:14;;;;;;;1.30;1.00;;;21.80;72.90;21.20;96296.00;;;;5094819;28;20289;-82
2023/09/19 05:01:41;;;;;;;1.50;0.80;;;21.80;72.90;21.20;96298.00;;;;5094672;28;20223;-82
2023/09/19 05:04:09;;;;;;;1.00;0.90;;;21.80;72.90;21.20;96300.00;;;;5096392;28;20201;-82
2023/09/19 05:06:36;;;;;;;0.73;0.60;;;21.80;72.90;21.20;96301.00;;;;5097794;28;20255;-82
2023/09/19 05:09:05;;;;;;;1.33;0.63;;;21.80;73.50;21.20;96303.00;;;;5095481;28;20197;-81
2023/09/19 05:11:33;;;;;;;1.00;0.80;;;21.80;72.70;21.30;96305.00;;;;5097016;28;20293;-82
2023/09/19 05:14:03;;;;;;;0.50;0.50;;;21.80;72.60;21.30;96313.00;;;;5095249;28;20199;-82
2023/09/19 05:16:32;;;;;;;1.17;0.67;;;21.90;72.90;21.30;96310.00;;;;5096969;28;20241;-82
2023/09/19 05:19:00;;;;;;;1.40;0.90;;;21.80;72.60;21.30;96320.00;;;;5095819;28;20203;-82
2023/09/19 05:21:28;;;;;;;0.73;0.70;;;21.90;72.60;21.30;96320.00;;;;5097336;28;20231;-82
2023/09/19 05:23:56;;;;;;;0.93;0.60;;;21.90;72.60;21.30;96332.00;;;;5097157;28;20290;-81
2023/09/19 05:26:24;;;;;;;0.97;0.63;;;21.90;72.70;21.30;96319.00;;;;5095175;28;20219;-82
2023/09/19 05:28:52;;;;;;;0.60;0.60;;;21.90;72.80;21.30;96337.00;;;;5098095;28;20203;-82
2023/09/19 05:31:21;;;;;;;1.83;0.63;;;21.90;72.90;21.30;96333.00;;;;5094333;28;20200;-81
2023/09/19 05:33:49;;;;;;;1.57;0.67;;;21.90;72.80;21.30;96341.00;;;;5101478;28;20219;-81
2023/09/19 05:36:18;;;;;;;0.80;0.70;;;21.90;72.90;21.30;96336.00;;;;5104591;28;20207;-81
2023/09/19 05:38:48;;;;;;;0.60;0.60;;;21.90;72.80;21.40;96341.00;;;;5105657;28;20287;-80
2023/09/19 05:41:15;;;;;;;0.60;0.60;;;21.90;73.50;21.40;96337.00;;;;5102307;28;20644;-80
2023/09/19 05:43:43;;;;;;;0.70;0.60;;;21.90;72.90;21.40;96343.00;;;;5106168;28;20660;-82
2023/09/19 05:46:12;;;;;;;0.70;0.50;;;22.00;72.80;21.40;96337.00;;;;5097026;28;20265;-80
2023/09/19 05:48:41;;;;;;;0.80;0.80;;;22.00;72.90;21.40;96343.00;;;;5102498;28;20279;-81
2023/09/19 05:51:09;;;;;;;0.63;0.60;;;22.00;72.80;21.40;96339.00;;;;5103628;28;20192;-82
2023/09/19 05:53:37;;;;;;;0.93;0.57;;;22.00;72.90;21.40;96338.00;;;;5099098;28;20210;-82
2023/09/19 05:56:04;;;;;;;1.53;0.57;;;22.00;73.70;21.40;96336.00;;;;5099715;28;20223;-82
2023/09/19 05:58:31;;;;;;;1.27;0.60;;;22.00;72.90;21.40;96352.00;;;;5101516;28;20203;-81
2023/09/19 06:00:59;;;;;;;0.63;0.63;;;22.00;72.60;21.40;96343.00;;;;5099859;28;20578;-81
2023/09/19 06:03:29;;;;;;;0.60;0.57;;;22.00;73.30;21.40;96340.00;;;;5097716;28;20200;-81
2023/09/19 06:05:57;;;;;;;1.53;0.60;;;22.00;72.70;21.40;96350.00;;;;5083671;28;20309;-82
2023/09/19 06:08:25;;;;;;;0.57;0.57;;;22.00;72.60;21.40;96349.00;;;;5095842;28;20227;-81
2023/09/19 06:10:53;;;;;;;0.70;0.70;;;22.00;72.50;21.40;96351.00;;;;5098326;28;20203;-82
2023/09/19 06:13:20;;;;;;;0.70;0.60;;;21.90;72.40;21.40;96351.00;;;;5090817;28;20202;-82
2023/09/19 06:15:48;;;;;;;1.13;0.60;;;21.90;72.50;21.40;96350.00;;;;5087939;28;20224;-83
2023/09/19 06:18:19;;;;;;;0.70;0.70;;;22.00;72.60;21.40;96356.00;;;;5076847;28;20691;-82
2023/09/19 06:20:50;;;;;;;0.83;0.50;;;21.90;72.40;21.40;96350.00;;;;5093746;28;20207;-83
2023/09/19 06:23:19;;;;;;;0.90;0.70;;;21.90;72.60;21.40;96354.00;;;;5094045;28;20302;-81
2023/09/19 06:25:48;;;;;;;0.60;0.60;;;21.90;72.80;21.40;96356.00;;;;5092976;28;20310;-82
2023/09/19 06:28:18;;;;;;;1.67;0.90;;;21.90;72.70;21.40;96359.00;;;;5077757;28;20268;-82
2023/09/19 06:30:45;;;;;;;1.07;0.67;;;21.90;72.80;21.40;96364.00;;;;5094429;28;20207;-83
2023/09/19 06:33:13;;;;;;;1.13;0.57;;;21.90;72.70;21.30;96360.00;;;;5093899;28;20219;-82
2023/09/19 06:35:41;;;;;;;0.50;0.50;;;21.90;72.90;21.40;96371.00;;;;5094119;28;20276;-82
2023/09/19 06:38:12;;;;;;;1.20;0.60;;;21.90;72.80;21.30;96374.00;;;;5093805;28;20191;-82
2023/09/19 06:40:42;;;;;;;0.90;0.60;;;21.90;72.70;21.30;96378.00;;;;5094326;28;20294;-82
2023/09/19 06:43:12;;;;;;;0.50;0.50;;;21.90;72.80;21.30;96381.00;;;;5075793;28;20288;-82
2023/09/19 06:45:39;;;;;;;0.70;0.63;;;21.90;72.90;21.30;96389.00;;;;5092799;28;20724;-82
2023/09/19 06:48:10;;;;;;;0.90;0.80;;;21.90;72.90;21.30;96387.00;;;;5092798;28;20195;-82
2023/09/19 06:50:38;;;;;;;0.60;0.60;;;21.90;73.00;21.30;96384.00;;;;5093625;28;20264;-82
2023/09/19 06:53:05;;;;;;;0.83;0.80;;;21.90;73.10;21.30;96390.00;;;;5093974;28;20211;-82
2023/09/19 06:55:34;;;;;;;1.20;0.63;;;21.90;73.10;21.30;96391.00;;;;5094313;28;20253;-83
2023/09/19 06:58:01;;;;;;;1.53;0.77;;;21.90;73.30;21.30;96388.00;;;;5095016;28;20235;-82
2023/09/19 07:00:31;;;;;;;2.70;0.70;;;21.90;73.20;21.40;96391.00;;;;5095610;28;20205;-82
2023/09/19 07:03:00;;;;;;;0.70;0.70;;;21.90;73.20;21.40;96389.00;;;;5093425;28;20233;-83
2023/09/19 07:05:28;;;;;;;0.37;0.37;;;21.90;73.10;21.40;96390.00;;;;5093495;28;20726;-82
2023/09/19 07:07:56;;;;;;;0.47;0.47;;;21.90;73.30;21.40;96395.00;;;;5091913;28;20207;-82
2023/09/19 07:10:25;;;;;;;1.03;0.50;;;21.90;73.40;21.40;96400.00;;;;5093637;28;20207;-82
2023/09/19 07:12:58;;;;;;;2.00;0.50;;;22.00;73.10;21.40;96396.00;;;;5093180;28;20627;-82
2023/09/19 07:15:26;;;;;;;0.83;0.70;;;21.90;72.30;21.40;96410.00;;;;5093381;28;20222;-82
2023/09/19 07:17:54;;;;;;;0.50;0.50;;;21.90;72.70;21.50;96404.00;;;;5093859;28;20664;-82
2023/09/19 07:20:25;;;;;;;0.70;0.60;;;22.00;72.70;21.50;96404.00;;;;5093116;28;20203;-81
2023/09/19 07:22:54;;;;;;;0.40;0.40;;;22.00;73.00;21.60;96415.00;;;;5093159;28;20232;-82
2023/09/19 07:25:22;;;;;;;1.17;0.40;;;22.00;73.20;21.70;96417.00;;;;5089482;28;20810;-82
2023/09/19 07:27:51;;;;;;;0.50;0.50;;;22.10;73.50;21.80;96411.00;;;;5092007;28;20207;-82
2023/09/19 07:30:19;;;;;;;0.90;0.30;;;22.20;73.40;21.80;96408.00;;;;5093409;28;20199;-82
2023/09/19 07:32:46;;;;;;;0.50;0.40;;;22.30;73.20;21.90;96420.00;;;;5092042;28;20654;-82
2023/09/19 07:35:14;;;;;;;1.27;0.60;;;22.30;73.10;22.00;96416.00;;;;5093749;28;20609;-82
2023/09/19 07:37:42;;;;;;;0.63;0.40;;;22.40;72.50;22.10;96406.00;;;;5093978;28;20202;-82
2023/09/19 07:40:11;;;;;;;0.50;0.50;;;22.50;72.10;22.10;96419.00;;;;5093755;28;20200;-83
2023/09/19 07:42:40;;;;;;;1.10;0.60;;;22.50;72.20;22.20;96414.00;;;;5093630;28;20227;-82
2023/09/19 07:45:09;;;;;;;0.50;0.47;;;22.60;73.10;22.20;96412.00;;;;5092919;28;20231;-82
2023/09/19 07:47:37;;;;;;;0.40;0.40;;;22.60;71.90;22.30;96421.00;;;;5091542;28;20238;-82
2023/09/19 07:50:07;;;;;;;0.60;0.40;;;22.70;71.60;22.30;96420.00;;;;5093692;28;20233;-83
2023/09/19 07:52:34;;;;;;;0.50;0.50;;;22.70;71.70;22.40;96422.00;;;;5094403;28;20224;-83
2023/09/19 07:55:08;;;;;;;1.47;0.47;;;22.80;72.40;22.50;96425.00;;;;5092249;28;20212;-83
2023/09/19 07:57:37;;;;;;;0.40;0.40;;;22.90;71.50;22.60;96421.00;;;;5092475;28;20206;-81
2023/09/19 08:00:06;;;;;;;1.23;0.77;;;22.90;71.30;22.60;96423.00;;;;5095020;28;20195;-83
2023/09/19 08:02:38;;;;;;;0.40;0.40;;;23.00;71.40;22.70;96435.00;;;;5095012;28;20716;-82
2023/09/19 08:05:09;;;;;;;1.00;0.50;;;23.10;70.60;22.80;96438.00;;;;5097632;28;20207;-82
2023/09/19 08:07:37;;;;;;;1.13;0.53;;;23.10;70.50;22.80;96434.00;;;;5096388;28;20206;-82
2023/09/19 08:10:07;;;;;;;0.60;0.50;;;23.20;70.30;22.90;96433.00;;;;5093916;28;20194;-81
2023/09/19 08:12:35;;;;;;;1.57;0.43;;;23.30;70.10;23.00;96439.00;;;;5096099;28;20210;-82
2023/09/19 08:15:03;;;;;;;0.83;0.60;;;23.30;70.00;23.00;96440.00;;;;5096256;28;20207;-82
2023/09/19 08:17:37;;;;;;;0.73;0.60;;;23.40;70.30;23.10;96439.00;;;;5092567;28;20206;-81
2023/09/19 08:20:05;;;;;;;0.43;0.40;;;23.50;70.00;23.10;96438.00;;;;5091983;28;20209;-82
2023/09/19 08:22:32;;;;;;;0.70;0.60;;;23.50;70.20;23.20;96442.00;;;;5093366;28;20735;-82
2023/09/19 08:25:04;;;;;;;1.20;0.60;;;23.60;70.10;23.30;96443.00;;;;5093014;28;20228;-82
2023/09/19 08:27:31;;;;;;;1.33;0.57;;;23.60;69.80;23.40;96442.00;;;;5074665;28;20206;-82
2023/09/19 08:29:58;;;;;;;0.90;0.57;;;23.70;70.00;23.50;96457.00;;;;5092384;28;20206;-82
2023/09/19 08:32:27;;;;;;;1.07;0.80;;;23.80;69.80;23.60;96455.00;;;;5092779;28;20210;-82
2023/09/19 08:34:55;;;;;;;1.03;0.50;;;23.90;69.50;23.70;96452.00;;;;5091486;28;20207;-83
2023/09/19 08:37:23;;;;;;;0.70;0.40;;;24.00;70.40;23.80;96456.00;;;;5082502;28;20214;-83
2023/09/19 08:39:50;;;;;;;1.23;0.50;;;24.00;69.00;23.80;96457.00;;;;5092164;28;20196;-83
2023/09/19 08:42:19;;;;;;;0.90;0.60;;;24.10;69.00;23.90;96460.00;;;;5093856;28;20293;-82
2023/09/19 08:44:47;;;;;;;0.43;0.30;;;24.30;69.20;24.00;96454.00;;;;5091676;28;20294;-83
2023/09/19 08:47:17;;;;;;;1.40;0.43;;;24.30;69.30;24.10;96450.00;;;;5091952;28;20215;-84
2023/09/19 08:50:02;;;;;;;0.30;0.30;;;24.40;68.80;24.20;96455.00;;;;5092196;28;20209;-84
2023/09/19 08:52:37;;;;;;;0.40;0.40;;;24.50;67.90;24.30;96456.00;;;;5091940;28;20312;-83
2023/09/19 08:55:10;;;;;;;1.10;0.40;;;24.60;68.60;24.50;96452.00;;;;5090452;28;20202;-84
2023/09/19 08:57:41;;;;;;;0.50;0.30;;;24.70;68.60;24.60;96456.00;;;;5092087;28;20204;-83
2023/09/19 09:00:11;;;;;;;0.83;0.30;;;24.80;68.60;24.70;96456.00;;;;5090398;28;20203;-83
2023/09/19 09:02:41;;;;;;;0.30;0.30;;;24.90;68.40;24.80;96457.00;;;;5090514;28;20302;-83
2023/09/19 09:05:11;;;;;;;0.33;0.33;;;25.00;68.20;24.90;96459.00;;;;5090749;28;20203;-83
2023/09/19 09:07:39;;;;;;;0.60;0.50;;;25.10;67.70;25.00;96458.00;;;;5091777;28;20196;-83
2023/09/19 09:10:08;;;;;;;0.63;0.50;;;25.20;68.10;25.10;96455.00;;;;5091495;28;20207;-82
2023/09/19 09:12:39;;;;;;;0.50;0.50;;;25.40;67.80;25.30;96460.00;;;;5091954;28;20214;-83
2023/09/19 09:15:08;;;;;;;1.17;0.50;;;25.50;66.80;25.40;96457.00;;;;5091492;28;20208;-81
2023/09/19 09:17:36;;;;;;;0.43;0.40;;;25.60;66.60;25.50;96455.00;;;;5091931;28;20211;-83
2023/09/19 09:20:05;;;;;;;0.93;0.40;;;25.70;67.30;25.60;96466.00;;;;5091566;28;20763;-83
2023/09/19 09:22:33;;;;;;;0.67;0.30;;;25.80;66.00;25.70;96473.00;;;;5091682;28;20254;-83
2023/09/19 09:25:03;;;;;;;0.70;0.40;;;25.90;65.80;25.70;96474.00;;;;5089773;28;20249;-83
2023/09/19 09:27:31;;;;;;;0.30;0.30;;;26.00;65.40;25.80;96462.00;;;;5074140;28;20203;-83
2023/09/19 09:29:58;;;;;;;0.40;0.40;;;26.00;65.00;25.80;96469.00;;;;5091149;28;20200;-83
2023/09/19 09:32:28;;;;;;;0.70;0.40;;;26.10;64.80;25.80;96467.00;;;;5087390;28;20621;-83
2023/09/19 09:34:58;;;;;;;1.13;0.30;;;26.20;64.40;25.80;96469.00;;;;5089735;28;20207;-82
2023/09/19 09:37:29;;;;;;;0.27;0.20;;;26.20;63.80;25.80;96473.00;;;;5091078;28;20739;-82
2023/09/19 09:40:19;;;;;;;0.20;0.20;;;26.20;63.70;25.80;96479.00;;;;5081436;28;20189;-82
2023/09/19 09:42:49;;;;;;;0.30;0.30;;;26.20;63.20;25.70;96470.00;;;;5095143;28;20250;-83
2023/09/19 09:45:28;;;;;;;0.30;0.30;;;26.20;62.60;25.70;96472.00;;;;5095045;27;20291;-83
2023/09/19 09:47:55;;;;;;;1.40;0.47;;;26.20;62.50;25.70;96460.00;;;;5093551;28;20210;-81
2023/09/19 09:50:39;;;;;;;0.57;0.40;;;26.10;62.00;25.60;96470.00;;;;5093891;28;20289;-82
2023/09/19 09:53:25;;;;;;;0.30;0.30;;;26.10;62.30;25.50;96462.00;;;;5094339;28;20708;-83
2023/09/19 09:56:03;;;;;;;0.53;0.40;;;26.00;61.10;25.50;96465.00;;;;5094757;28;20734;-83
2023/09/19 09:58:32;;;;;;;0.53;0.37;;;26.00;61.90;25.40;96460.00;;;;5094868;28;20252;-84
2023/09/19 10:01:03;;;;;;;0.40;0.40;;;25.90;61.90;25.30;96466.00;;;;5094783;28;20245;-83
2023/09/19 10:03:39;;;;;;;1.43;0.43;;;25.80;62.10;25.30;96467.00;;;;5094848;28;20227;-83
2023/09/19 10:06:27;;;;;;;0.97;0.53;;;25.80;62.50;25.30;96475.00;;;;5094488;28;20222;-82
2023/09/19 10:09:12;;;;;;;0.93;0.40;;;25.80;62.30;25.30;96475.00;;;;5094407;28;20199;-83
2023/09/19 10:11:46;;;;;;;0.30;0.30;;;25.80;62.20;25.30;96467.00;;;;5088907;28;20203;-83
2023/09/19 10:14:16;;;;;;;0.83;0.40;;;25.80;62.10;25.30;96475.00;;;;5094133;28;20202;-83
2023/09/19 10:16:47;;;;;;;0.53;0.53;;;25.70;62.30;25.20;96470.00;;;;5092963;28;20314;-83
2023/09/19 10:19:24;;;;;;;0.77;0.50;;;25.70;61.60;25.20;96475.00;;;;5092797;28;20377;-83
2023/09/19 10:21:56;;;;;;;0.30;0.30;;;25.70;62.20;25.20;96473.00;;;;5094534;28;20566;-82
2023/09/19 10:24:24;;;;;;;0.30;0.30;;;25.70;63.10;25.30;96476.00;;;;5093523;28;20230;-83
2023/09/19 10:26:54;;;;;;;0.80;0.70;;;25.70;63.30;25.30;96476.00;;;;5095285;28;20277;-83
2023/09/19 10:29:23;;;;;;;0.77;0.40;;;25.70;62.60;25.30;96477.00;;;;5091516;28;20252;-83
2023/09/19 10:31:53;;;;;;;0.30;0.30;;;25.70;62.30;25.20;96485.00;;;;5103407;28;20280;-83
2023/09/19 10:34:23;;;;;;;1.37;0.40;;;25.70;62.00;25.20;96491.00;;;;5102987;28;20195;-83
2023/09/19 10:36:53;;;;;;;0.60;0.60;;;25.60;61.20;25.10;96497.00;;;;5105959;28;20719;-83
2023/09/19 10:39:20;;;;;;;0.20;0.20;;;25.60;60.80;25.10;96520.00;;;;5103133;28;20192;-83
2023/09/19 10:41:58;;;;;;;0.30;0.30;;;25.60;60.70;25.10;96534.00;;;;5099662;28;20217;-83
2023/09/19 10:44:28;;;;;;;0.33;0.33;;;25.50;60.70;25.00;96521.00;;;;5097172;28;20306;-83
2023/09/19 10:46:56;;;;;;;0.30;0.30;;;25.50;61.40;24.90;96530.00;;;;5095680;28;20290;-83
2023/09/19 10:49:25;;;;;;;0.70;0.33;;;25.40;61.50;24.80;96531.00;;;;5094958;28;20203;-82
2023/09/19 10:52:01;;;;;;;0.50;0.40;;;25.30;61.30;24.60;96528.00;;;;5093138;28;20203;-83
2023/09/19 10:54:36;;;;;;;1.70;0.57;;;25.20;61.40;24.50;96520.00;;;;5087305;28;20195;-82
2023/09/19 10:57:08;;;;;;;1.23;0.40;;;25.10;61.70;24.30;96524.00;;;;5093287;28;20221;-83
2023/09/19 10:59:36;;;;;;;0.40;0.30;;;25.00;61.90;24.20;96523.00;;;;5090868;28;20195;-83
2023/09/19 11:02:19;;;;;;;0.40;0.40;;;24.90;62.40;24.00;96522.00;;;;5093331;28;20211;-83
2023/09/19 11:04:48;;;;;;;0.30;0.30;;;24.70;62.30;23.90;96521.00;;;;5092216;28;20585;-82
2023/09/19 11:07:17;;;;;;;0.77;0.30;;;24.60;62.90;23.80;96525.00;;;;5093495;28;20227;-83